Time;durP1;ratioP1;P1;durP2;ratioP2;P2;SDS_P1;SDS_P2;PMS_P1;PMS_P2;Temp;Humidity;BMP_temperature;BMP_pressure;BME280_temperature;BME280_humidity;BME280_pressure;Samples;Min_cycle;Max_cycle;Signal;HPM_P1;HPM_P2
2024/01/11 00:01:03;;;;;;;27.02;10.23;;;;;;;;;;5069356;28;20260;-61
2024/01/11 00:03:31;;;;;;;30.40;9.82;;;;;;;;;;5068992;28;20092;-60
2024/01/11 00:06:04;;;;;;;24.85;9.60;;;;;;;;;;5069420;28;20121;-61
2024/01/11 00:08:32;;;;;;;24.00;10.15;;;;;;;;;;5068224;28;20050;-62
2024/01/11 00:11:00;;;;;;;21.77;8.73;;;;;;;;;;5068569;28;20051;-61
2024/01/11 00:13:29;;;;;;;21.73;9.65;;;;;;;;;;5069923;28;20051;-57
2024/01/11 00:15:57;;;;;;;23.30;9.40;;;;;;;;;;5067949;28;20101;-60
2024/01/11 00:18:26;;;;;;;27.48;10.45;;;;;;;;;;5066975;28;20079;-62
2024/01/11 00:20:54;;;;;;;25.35;9.35;;;;;;;;;;5067698;28;20053;-61
2024/01/11 00:23:24;;;;;;;25.45;10.88;;;;;;;;;;5069311;28;20048;-59
2024/01/11 00:25:53;;;;;;;24.10;9.07;;;;;;;;;;5067611;28;20048;-60
2024/01/11 00:28:21;;;;;;;26.88;9.60;;;;;;;;;;5068399;28;20068;-60
2024/01/11 00:30:49;;;;;;;25.35;9.27;;;;;;;;;;5066130;28;20495;-59
2024/01/11 00:33:18;;;;;;;26.58;9.40;;;;;;;;;;5068091;28;20076;-60
2024/01/11 00:35:46;;;;;;;21.92;9.52;;;;;;;;;;5067972;28;20159;-59
2024/01/11 00:38:15;;;;;;;21.27;8.30;;;;;;;;;;5068650;28;20048;-62
2024/01/11 00:40:44;;;;;;;21.73;9.48;;;;;;;;;;5068739;28;20048;-59
2024/01/11 00:43:13;;;;;;;24.45;9.55;;;;;;;;;;5069244;28;20136;-59
2024/01/11 00:45:41;;;;;;;21.77;8.48;;;;;;;;;;5068275;28;20661;-60
2024/01/11 00:48:09;;;;;;;24.40;9.25;;;;;;;;;;5067065;28;20063;-60
2024/01/11 00:50:38;;;;;;;31.00;9.50;;;;;;;;;;5067687;28;20056;-59
2024/01/11 00:53:08;;;;;;;23.05;9.48;;;;;;;;;;5069754;28;20142;-58
2024/01/11 00:55:36;;;;;;;32.78;11.50;;;;;;;;;;5068588;28;20058;-59
2024/01/11 00:58:06;;;;;;;18.30;8.38;;;;;;;;;;5068949;28;20052;-60
2024/01/11 01:00:34;;;;;;;18.63;8.48;;;;;;;;;;5069369;28;20048;-61
2024/01/11 01:03:03;;;;;;;29.58;9.65;;;;;;;;;;5068574;28;20065;-59
2024/01/11 01:05:31;;;;;;;23.40;8.93;;;;;;;;;;5066407;28;20098;-59
2024/01/11 01:08:00;;;;;;;26.15;9.77;;;;;;;;;;5068326;28;20044;-60
2024/01/11 01:10:28;;;;;;;25.88;9.77;;;;;;;;;;5066024;28;20147;-61
2024/01/11 01:12:57;;;;;;;25.55;10.23;;;;;;;;;;5066619;28;20102;-59
2024/01/11 01:15:26;;;;;;;31.15;10.73;;;;;;;;;;5067638;28;20489;-58
2024/01/11 01:17:55;;;;;;;21.23;9.35;;;;;;;;;;5068116;28;20040;-60
2024/01/11 01:20:23;;;;;;;23.38;9.23;;;;;;;;;;5067951;28;20080;-60
2024/01/11 01:22:52;;;;;;;18.13;8.52;;;;;;;;;;5065183;28;20041;-61
2024/01/11 01:25:20;;;;;;;19.45;8.82;;;;;;;;;;5066871;28;20048;-60
2024/01/11 01:27:49;;;;;;;21.10;9.38;;;;;;;;;;5068032;28;20122;-59
2024/01/11 01:30:17;;;;;;;17.63;7.65;;;;;;;;;;5068292;28;20060;-59
2024/01/11 01:32:47;;;;;;;27.38;8.93;;;;;;;;;;5068177;28;20036;-60
2024/01/11 01:35:16;;;;;;;22.25;9.18;;;;;;;;;;5067285;28;20040;-58
2024/01/11 01:37:44;;;;;;;19.45;8.45;;;;;;;;;;5068214;28;20163;-59
2024/01/11 01:40:13;;;;;;;17.55;7.38;;;;;;;;;;5065583;28;20199;-60
2024/01/11 01:42:44;;;;;;;20.67;8.02;;;;;;;;;;5067624;28;20052;-60
2024/01/11 01:45:12;;;;;;;21.95;9.48;;;;;;;;;;5067342;28;20113;-60
2024/01/11 01:47:41;;;;;;;19.75;9.27;;;;;;;;;;5065622;28;20497;-61
2024/01/11 01:50:12;;;;;;;22.52;10.15;;;;;;;;;;5065702;28;20055;-61
2024/01/11 01:52:42;;;;;;;21.77;9.48;;;;;;;;;;5067067;28;20048;-62
2024/01/11 01:55:11;;;;;;;23.50;8.57;;;;;;;;;;5067216;28;20048;-59
2024/01/11 01:57:41;;;;;;;14.82;8.13;;;;;;;;;;5064148;28;20390;-60
2024/01/11 02:00:10;;;;;;;27.08;9.63;;;;;;;;;;5067799;28;20101;-60
2024/01/11 02:02:38;;;;;;;28.38;9.88;;;;;;;;;;5066723;28;20056;-61
2024/01/11 02:05:07;;;;;;;23.95;9.30;;;;;;;;;;5067044;28;20076;-61
2024/01/11 02:07:37;;;;;;;21.55;9.45;;;;;;;;;;5062484;28;20489;-59
2024/01/11 02:10:06;;;;;;;25.92;9.63;;;;;;;;;;5065790;28;20106;-60
2024/01/11 02:12:36;;;;;;;22.30;9.27;;;;;;;;;;5061043;28;20072;-60
2024/01/11 02:15:05;;;;;;;26.02;9.32;;;;;;;;;;5066686;28;20365;-60
2024/01/11 02:17:34;;;;;;;20.10;9.60;;;;;;;;;;5064111;28;20040;-59
2024/01/11 02:20:03;;;;;;;23.38;8.65;;;;;;;;;;5068717;28;20142;-59
2024/01/11 02:22:34;;;;;;;15.95;7.35;;;;;;;;;;5066032;28;20041;-59
2024/01/11 02:25:03;;;;;;;15.23;7.45;;;;;;;;;;5065918;28;20056;-61
2024/01/11 02:27:32;;;;;;;23.55;8.55;;;;;;;;;;5066243;28;20121;-60
2024/01/11 02:30:00;;;;;;;19.73;7.78;;;;;;;;;;5066314;28;20100;-63
2024/01/11 02:32:28;;;;;;;17.63;9.38;;;;;;;;;;5063515;28;20566;-60
2024/01/11 02:34:57;;;;;;;21.27;9.38;;;;;;;;;;5062826;28;20048;-59
2024/01/11 02:37:26;;;;;;;22.23;10.20;;;;;;;;;;5066261;28;20122;-61
2024/01/11 02:39:54;;;;;;;22.73;9.43;;;;;;;;;;5064221;28;20048;-60
2024/01/11 02:42:24;;;;;;;13.57;7.57;;;;;;;;;;5065818;28;20149;-59
2024/01/11 02:44:52;;;;;;;24.27;8.88;;;;;;;;;;5067489;28;20554;-60
2024/01/11 02:47:20;;;;;;;21.92;8.63;;;;;;;;;;5065827;28;20099;-59
2024/01/11 02:49:49;;;;;;;20.52;10.02;;;;;;;;;;5065329;28;20377;-60
2024/01/11 02:52:17;;;;;;;17.45;8.40;;;;;;;;;;5065210;28;20122;-61
2024/01/11 02:54:45;;;;;;;21.88;8.73;;;;;;;;;;5066902;28;20129;-59
2024/01/11 02:57:14;;;;;;;23.55;8.68;;;;;;;;;;5066038;28;20113;-60
2024/01/11 02:59:44;;;;;;;22.48;9.95;;;;;;;;;;5067386;28;20076;-61
2024/01/11 03:02:13;;;;;;;20.15;9.75;;;;;;;;;;5062867;28;20045;-61
2024/01/11 03:04:41;;;;;;;22.90;9.55;;;;;;;;;;5068370;28;20065;-60
2024/01/11 03:07:09;;;;;;;27.80;9.73;;;;;;;;;;5069776;28;20052;-58
2024/01/11 03:09:38;;;;;;;27.75;10.65;;;;;;;;;;5071181;28;20047;-60
2024/01/11 03:12:07;;;;;;;23.33;9.32;;;;;;;;;;5070032;28;20044;-60
2024/01/11 03:14:35;;;;;;;20.80;8.90;;;;;;;;;;5069902;28;20140;-60
2024/01/11 03:17:05;;;;;;;21.10;8.77;;;;;;;;;;5067860;28;20511;-60
2024/01/11 03:19:34;;;;;;;21.55;9.60;;;;;;;;;;5069894;28;20063;-60
2024/01/11 03:22:06;;;;;;;24.20;9.65;;;;;;;;;;5068764;28;20052;-59
2024/01/11 03:24:34;;;;;;;23.98;9.73;;;;;;;;;;5069563;28;20406;-60
2024/01/11 03:27:02;;;;;;;29.40;8.75;;;;;;;;;;5067195;28;20079;-61
2024/01/11 03:29:31;;;;;;;24.23;9.30;;;;;;;;;;5068764;28;20051;-60
2024/01/11 03:31:59;;;;;;;22.40;9.13;;;;;;;;;;5069134;28;20106;-59
2024/01/11 03:34:29;;;;;;;26.20;9.40;;;;;;;;;;5070258;28;20428;-58
2024/01/11 03:36:58;;;;;;;23.08;9.50;;;;;;;;;;5070087;28;20041;-60
2024/01/11 03:39:26;;;;;;;25.90;10.23;;;;;;;;;;5069478;28;20518;-60
2024/01/11 03:41:55;;;;;;;27.35;10.32;;;;;;;;;;5067161;28;20048;-60
2024/01/11 03:44:24;;;;;;;24.48;9.43;;;;;;;;;;5070390;28;20089;-60
2024/01/11 03:46:52;;;;;;;22.65;10.05;;;;;;;;;;5069561;28;20051;-59
2024/01/11 03:49:20;;;;;;;24.83;10.68;;;;;;;;;;5065880;28;20052;-60
2024/01/11 03:51:50;;;;;;;22.67;10.18;;;;;;;;;;5064384;28;20540;-62
2024/01/11 03:54:19;;;;;;;19.58;8.55;;;;;;;;;;5069316;28;20390;-60
2024/01/11 03:56:48;;;;;;;18.88;7.85;;;;;;;;;;5066219;28;20052;-59
2024/01/11 03:59:16;;;;;;;18.63;8.07;;;;;;;;;;5066481;28;20094;-58
2024/01/11 04:01:45;;;;;;;20.63;8.40;;;;;;;;;;5063239;28;20405;-60
2024/01/11 04:04:13;;;;;;;23.58;8.65;;;;;;;;;;5069792;28;20049;-61
2024/01/11 04:06:41;;;;;;;21.35;8.82;;;;;;;;;;5068653;28;20048;-61
2024/01/11 04:09:11;;;;;;;17.27;7.35;;;;;;;;;;5068046;28;20146;-60
2024/01/11 04:11:39;;;;;;;19.75;9.05;;;;;;;;;;5068917;28;20045;-59
2024/01/11 04:14:08;;;;;;;23.63;9.95;;;;;;;;;;5066675;28;20059;-60
2024/01/11 04:16:41;;;;;;;19.88;8.93;;;;;;;;;;5066522;28;20045;-61
2024/01/11 04:19:09;;;;;;;25.42;8.88;;;;;;;;;;5067523;28;20041;-61
2024/01/11 04:21:39;;;;;;;16.20;7.03;;;;;;;;;;5067810;28;20147;-60
2024/01/11 04:24:08;;;;;;;20.52;8.52;;;;;;;;;;5069410;28;20102;-59
2024/01/11 04:26:37;;;;;;;19.25;8.07;;;;;;;;;;5068116;28;20210;-59
2024/01/11 04:29:06;;;;;;;24.35;9.48;;;;;;;;;;5066171;28;20047;-61
2024/01/11 04:31:34;;;;;;;16.75;8.15;;;;;;;;;;5067938;28;20060;-63
2024/01/11 04:34:02;;;;;;;16.92;7.40;;;;;;;;;;5066811;28;20080;-61
2024/01/11 04:36:31;;;;;;;14.20;6.78;;;;;;;;;;5065806;28;20594;-59
2024/01/11 04:38:59;;;;;;;19.98;8.50;;;;;;;;;;5068819;28;20117;-59
2024/01/11 04:41:28;;;;;;;22.60;8.18;;;;;;;;;;5068389;28;20048;-60
2024/01/11 04:43:57;;;;;;;23.08;9.77;;;;;;;;;;5065965;28;20460;-61
2024/01/11 04:46:26;;;;;;;20.25;8.10;;;;;;;;;;5061156;28;20051;-61
2024/01/11 04:48:54;;;;;;;23.85;10.82;;;;;;;;;;5062694;28;20048;-62
2024/01/11 04:51:23;;;;;;;24.20;7.97;;;;;;;;;;5065542;28;20048;-60
2024/01/11 04:53:51;;;;;;;17.25;7.65;;;;;;;;;;5065014;28;20065;-59
2024/01/11 04:56:20;;;;;;;24.73;9.07;;;;;;;;;;5063043;28;20072;-61
2024/01/11 04:58:48;;;;;;;19.65;9.32;;;;;;;;;;5062850;28;20376;-61
2024/01/11 05:01:18;;;;;;;24.60;10.10;;;;;;;;;;5063307;28;20067;-59
2024/01/11 05:03:47;;;;;;;25.55;9.90;;;;;;;;;;5062117;28;20051;-60
2024/01/11 05:06:17;;;;;;;27.15;9.60;;;;;;;;;;5064571;28;20197;-62
2024/01/11 05:08:45;;;;;;;20.85;9.32;;;;;;;;;;5064215;28;20243;-62
2024/01/11 05:11:18;;;;;;;25.35;9.85;;;;;;;;;;5064576;28;20056;-62
2024/01/11 05:13:47;;;;;;;24.05;9.10;;;;;;;;;;5066461;28;20491;-57
2024/01/11 05:16:22;;;;;;;22.77;8.88;;;;;;;;;;5064585;28;20057;-59
2024/01/11 05:18:51;;;;;;;23.52;9.70;;;;;;;;;;5064924;28;20493;-60
2024/01/11 05:21:19;;;;;;;20.75;8.68;;;;;;;;;;5061889;28;20159;-61
2024/01/11 05:23:48;;;;;;;19.35;7.97;;;;;;;;;;5063574;28;20052;-63
2024/01/11 05:26:17;;;;;;;22.60;9.25;;;;;;;;;;5063787;28;20049;-59
2024/01/11 05:28:46;;;;;;;24.63;8.10;;;;;;;;;;5065508;28;20084;-63
2024/01/11 05:31:15;;;;;;;18.83;8.38;;;;;;;;;;5063960;28;20068;-60
2024/01/11 05:33:46;;;;;;;23.05;9.10;;;;;;;;;;5065781;28;20044;-60
2024/01/11 05:36:16;;;;;;;21.13;8.27;;;;;;;;;;5064232;28;20151;-59
2024/01/11 05:38:44;;;;;;;23.33;9.60;;;;;;;;;;5062916;28;20462;-60
2024/01/11 05:41:13;;;;;;;17.13;8.07;;;;;;;;;;5065151;28;20052;-60
2024/01/11 05:43:42;;;;;;;21.85;7.78;;;;;;;;;;5064927;28;20052;-61
2024/01/11 05:46:10;;;;;;;16.90;8.23;;;;;;;;;;5065525;28;20061;-60
2024/01/11 05:48:39;;;;;;;21.65;8.75;;;;;;;;;;5064230;28;20329;-60
2024/01/11 05:51:09;;;;;;;21.92;8.85;;;;;;;;;;5066988;28;20127;-60
2024/01/11 05:53:38;;;;;;;19.50;9.15;;;;;;;;;;5065537;28;20057;-60
2024/01/11 05:56:09;;;;;;;19.17;9.00;;;;;;;;;;5063002;28;20513;-60
2024/01/11 05:58:38;;;;;;;19.38;8.80;;;;;;;;;;5067417;28;20036;-60
2024/01/11 06:01:07;;;;;;;15.93;8.52;;;;;;;;;;5065531;28;20044;-60
2024/01/11 06:03:36;;;;;;;20.92;9.05;;;;;;;;;;5064185;28;20046;-59
2024/01/11 06:06:05;;;;;;;19.98;8.43;;;;;;;;;;5064054;28;20059;-59
2024/01/11 06:08:35;;;;;;;23.83;9.15;;;;;;;;;;5066022;28;20051;-61
2024/01/11 06:11:04;;;;;;;28.23;9.73;;;;;;;;;;5066487;28;20048;-61
2024/01/11 06:13:33;;;;;;;20.30;9.32;;;;;;;;;;5063021;28;20041;-58
2024/01/11 06:16:01;;;;;;;17.85;8.88;;;;;;;;;;5064315;28;20037;-60
2024/01/11 06:18:30;;;;;;;17.80;9.07;;;;;;;;;;5064985;28;20382;-63
2024/01/11 06:20:59;;;;;;;25.77;10.45;;;;;;;;;;5064929;28;20040;-65
2024/01/11 06:23:27;;;;;;;20.02;9.43;;;;;;;;;;5067624;28;20049;-64
2024/01/11 06:25:57;;;;;;;20.55;9.48;;;;;;;;;;5066279;28;20044;-65
2024/01/11 06:28:26;;;;;;;24.00;9.13;;;;;;;;;;5067556;28;20056;-64
2024/01/11 06:30:54;;;;;;;20.55;9.25;;;;;;;;;;5066320;28;20497;-64
2024/01/11 06:33:22;;;;;;;23.10;10.57;;;;;;;;;;5064554;28;20140;-65
2024/01/11 06:35:51;;;;;;;22.50;9.35;;;;;;;;;;5066990;28;20063;-64
2024/01/11 06:38:20;;;;;;;23.02;10.15;;;;;;;;;;5065128;28;20105;-64
2024/01/11 06:40:48;;;;;;;24.83;10.52;;;;;;;;;;5068156;28;20056;-64
2024/01/11 06:43:18;;;;;;;19.95;8.75;;;;;;;;;;5067753;28;20440;-65
2024/01/11 06:45:46;;;;;;;23.27;8.68;;;;;;;;;;5063724;28;20076;-64
2024/01/11 06:48:14;;;;;;;21.98;8.35;;;;;;;;;;5067438;28;20056;-64
2024/01/11 06:50:43;;;;;;;29.48;11.20;;;;;;;;;;5067398;28;20040;-64
2024/01/11 06:53:12;;;;;;;26.80;10.20;;;;;;;;;;5066069;28;20496;-64
2024/01/11 06:55:41;;;;;;;24.95;10.10;;;;;;;;;;5065294;28;20051;-64
2024/01/11 06:58:09;;;;;;;24.85;9.68;;;;;;;;;;5066168;28;20048;-64
2024/01/11 07:00:42;;;;;;;27.98;10.10;;;;;;;;;;5067082;28;20055;-65
2024/01/11 07:03:12;;;;;;;23.73;9.63;;;;;;;;;;5065854;28;20261;-65
2024/01/11 07:05:40;;;;;;;20.92;9.57;;;;;;;;;;5066507;28;20075;-64
2024/01/11 07:08:09;;;;;;;20.25;9.35;;;;;;;;;;5067112;28;20041;-64
2024/01/11 07:10:37;;;;;;;20.50;9.30;;;;;;;;;;5065233;28;20048;-64
2024/01/11 07:13:06;;;;;;;20.05;8.73;;;;;;;;;;5065010;28;20499;-64
2024/01/11 07:15:35;;;;;;;20.45;8.65;;;;;;;;;;5066822;28;20055;-63
2024/01/11 07:18:05;;;;;;;21.23;8.43;;;;;;;;;;5065569;28;20526;-63
2024/01/11 07:20:34;;;;;;;20.17;8.68;;;;;;;;;;5066583;28;20443;-64
2024/01/11 07:23:02;;;;;;;22.17;10.07;;;;;;;;;;5065374;28;20123;-65
2024/01/11 07:25:31;;;;;;;24.50;10.40;;;;;;;;;;5066402;28;20044;-65
2024/01/11 07:28:00;;;;;;;21.70;9.02;;;;;;;;;;5065733;28;20041;-64
2024/01/11 07:30:28;;;;;;;25.17;9.32;;;;;;;;;;5065986;28;20098;-63
2024/01/11 07:32:56;;;;;;;20.25;8.70;;;;;;;;;;5064338;28;20052;-62
2024/01/11 07:35:27;;;;;;;23.45;9.32;;;;;;;;;;5065555;28;20041;-65
2024/01/11 07:37:56;;;;;;;23.23;8.98;;;;;;;;;;5063451;28;20044;-65
2024/01/11 07:40:25;;;;;;;24.52;10.00;;;;;;;;;;5065131;28;20065;-65
2024/01/11 07:42:54;;;;;;;25.45;9.35;;;;;;;;;;5067180;28;20102;-64
2024/01/11 07:45:22;;;;;;;18.73;9.38;;;;;;;;;;5063627;28;20044;-64
2024/01/11 07:47:50;;;;;;;25.38;9.30;;;;;;;;;;5065713;28;20052;-65
2024/01/11 07:50:19;;;;;;;24.48;10.38;;;;;;;;;;5067920;28;20063;-65
2024/01/11 07:52:49;;;;;;;20.98;8.98;;;;;;;;;;5070318;28;20056;-64
2024/01/11 07:55:18;;;;;;;15.30;7.20;;;;;;;;;;5069136;28;20482;-63
2024/01/11 07:57:46;;;;;;;22.48;9.43;;;;;;;;;;5070599;28;20044;-64
2024/01/11 08:00:15;;;;;;;24.88;9.32;;;;;;;;;;5070015;28;20582;-67
2024/01/11 08:02:43;;;;;;;16.38;7.93;;;;;;;;;;5069738;28;20499;-63
2024/01/11 08:05:12;;;;;;;18.70;8.15;;;;;;;;;;5066704;28;20317;-64
2024/01/11 08:07:41;;;;;;;21.15;8.82;;;;;;;;;;5067524;28;20053;-64
2024/01/11 08:10:11;;;;;;;25.75;9.52;;;;;;;;;;5067299;28;20057;-65
2024/01/11 08:12:40;;;;;;;16.95;8.00;;;;;;;;;;5069519;28;20044;-65
2024/01/11 08:15:12;;;;;;;15.98;7.13;;;;;;;;;;5065951;28;20044;-64
2024/01/11 08:17:40;;;;;;;15.77;7.55;;;;;;;;;;5064586;28;20048;-64
2024/01/11 08:20:12;;;;;;;16.85;7.63;;;;;;;;;;5067881;28;20104;-65
2024/01/11 08:22:40;;;;;;;15.07;7.18;;;;;;;;;;5067991;28;20155;-64
2024/01/11 08:25:09;;;;;;;12.93;6.03;;;;;;;;;;5067269;28;20060;-64
2024/01/11 08:27:39;;;;;;;14.95;7.22;;;;;;;;;;5068749;28;20105;-63
2024/01/11 08:30:08;;;;;;;16.77;8.00;;;;;;;;;;5067509;28;20060;-63
2024/01/11 08:32:39;;;;;;;21.42;7.80;;;;;;;;;;5068340;28;20052;-63
2024/01/11 08:35:09;;;;;;;18.88;8.02;;;;;;;;;;5066960;28;20429;-63
2024/01/11 08:37:38;;;;;;;15.73;7.10;;;;;;;;;;5067997;28;20052;-64
2024/01/11 08:40:09;;;;;;;22.52;9.20;;;;;;;;;;5068306;28;20073;-65
2024/01/11 08:42:37;;;;;;;14.27;7.70;;;;;;;;;;5066544;28;20052;-63
2024/01/11 08:45:08;;;;;;;17.02;8.13;;;;;;;;;;5067597;28;20110;-64
2024/01/11 08:47:38;;;;;;;16.25;7.68;;;;;;;;;;5066029;28;20049;-64
2024/01/11 08:50:07;;;;;;;19.50;9.07;;;;;;;;;;5068141;28;20048;-65
2024/01/11 08:52:38;;;;;;;25.17;9.45;;;;;;;;;;5068679;28;20052;-64
2024/01/11 08:55:07;;;;;;;29.05;10.88;;;;;;;;;;5068961;28;20059;-63
2024/01/11 08:57:37;;;;;;;21.77;9.93;;;;;;;;;;5069574;28;20056;-63
2024/01/11 09:00:06;;;;;;;25.80;11.00;;;;;;;;;;5068115;28;20048;-64
2024/01/11 09:02:36;;;;;;;32.00;12.40;;;;;;;;;;5068102;28;20044;-65
2024/01/11 09:05:07;;;;;;;30.92;11.60;;;;;;;;;;5068586;28;20052;-65
2024/01/11 09:07:37;;;;;;;30.08;11.40;;;;;;;;;;5069131;28;20044;-65
2024/01/11 09:10:08;;;;;;;29.55;11.75;;;;;;;;;;5069241;28;20044;-63
2024/01/11 09:12:36;;;;;;;33.20;11.85;;;;;;;;;;5069761;28;20495;-64
2024/01/11 09:15:05;;;;;;;25.33;9.27;;;;;;;;;;5068168;28;20048;-65
2024/01/11 09:17:34;;;;;;;31.25;12.60;;;;;;;;;;5068807;28;20520;-64
2024/01/11 09:20:04;;;;;;;32.33;11.65;;;;;;;;;;5068225;28;20164;-64
2024/01/11 09:22:32;;;;;;;29.05;11.43;;;;;;;;;;5067000;28;20148;-63
2024/01/11 09:25:01;;;;;;;27.42;11.18;;;;;;;;;;5067966;28;20595;-64
2024/01/11 09:27:29;;;;;;;32.67;12.93;;;;;;;;;;5067867;28;20052;-64
2024/01/11 09:29:58;;;;;;;28.27;12.25;;;;;;;;;;5069152;28;20040;-63
2024/01/11 09:32:26;;;;;;;26.08;11.35;;;;;;;;;;5067974;28;20048;-64
2024/01/11 09:34:55;;;;;;;30.13;11.68;;;;;;;;;;5068518;28;20063;-65
2024/01/11 09:37:24;;;;;;;30.33;11.90;;;;;;;;;;5067055;28;20048;-64
2024/01/11 09:39:53;;;;;;;26.73;11.27;;;;;;;;;;5066566;28;20117;-64
2024/01/11 09:42:21;;;;;;;27.95;11.30;;;;;;;;;;5066064;28;20048;-63
2024/01/11 09:44:50;;;;;;;27.92;10.43;;;;;;;;;;5068579;28;20079;-63
2024/01/11 09:47:18;;;;;;;27.42;11.18;;;;;;;;;;5067439;28;20508;-65
2024/01/11 09:49:50;;;;;;;30.45;11.48;;;;;;;;;;5067340;28;20485;-63
2024/01/11 09:52:21;;;;;;;28.77;10.70;;;;;;;;;;5067426;28;20140;-63
2024/01/11 09:54:51;;;;;;;39.47;13.48;;;;;;;;;;5068317;28;20417;-63
2024/01/11 09:57:25;;;;;;;26.77;11.60;;;;;;;;;;5068093;28;20398;-65
2024/01/11 09:59:56;;;;;;;31.30;12.18;;;;;;;;;;5067958;28;20465;-64
2024/01/11 10:02:26;;;;;;;31.42;11.13;;;;;;;;;;5065437;28;20386;-63
2024/01/11 10:04:55;;;;;;;26.52;11.68;;;;;;;;;;5065256;28;20049;-64
2024/01/11 10:07:24;;;;;;;27.70;11.10;;;;;;;;;;5067061;28;20106;-63
2024/01/11 10:09:54;;;;;;;23.63;10.32;;;;;;;;;;5066916;28;20086;-64
2024/01/11 10:12:24;;;;;;;23.75;9.93;;;;;;;;;;5067364;28;20036;-65
2024/01/11 10:14:54;;;;;;;29.45;11.75;;;;;;;;;;5065506;28;20048;-64
2024/01/11 10:17:22;;;;;;;21.92;9.82;;;;;;;;;;5065054;28;20049;-63
2024/01/11 10:19:55;;;;;;;27.48;10.60;;;;;;;;;;5066587;28;20098;-64
2024/01/11 10:22:24;;;;;;;23.30;10.48;;;;;;;;;;5067273;28;20088;-63
2024/01/11 10:25:09;;;;;;;23.75;10.63;;;;;;;;;;5067410;28;20106;-64
2024/01/11 10:27:38;;;;;;;27.23;9.82;;;;;;;;;;5079441;28;20059;-64
2024/01/11 10:30:07;;;;;;;25.30;10.73;;;;;;;;;;5067049;28;20095;-63
2024/01/11 10:32:36;;;;;;;25.75;11.57;;;;;;;;;;5067858;28;20059;-63
2024/01/11 10:35:05;;;;;;;27.02;10.60;;;;;;;;;;5065971;28;20048;-63
2024/01/11 10:37:34;;;;;;;29.23;11.52;;;;;;;;;;5067726;28;20072;-63
2024/01/11 10:40:09;;;;;;;26.27;11.68;;;;;;;;;;5066246;28;20044;-65
2024/01/11 10:42:41;;;;;;;26.65;11.13;;;;;;;;;;5067164;28;20132;-64
2024/01/11 10:45:12;;;;;;;31.55;13.00;;;;;;;;;;5065509;28;20487;-63
2024/01/11 10:47:42;;;;;;;25.77;10.38;;;;;;;;;;5067264;28;20098;-64
2024/01/11 10:50:10;;;;;;;25.42;10.93;;;;;;;;;;5066311;28;20139;-64
2024/01/11 10:52:50;;;;;;;30.85;13.13;;;;;;;;;;5067377;28;20167;-64
2024/01/11 10:55:20;;;;;;;34.83;14.32;;;;;;;;;;5067102;28;20554;-63
2024/01/11 10:57:49;;;;;;;28.92;12.70;;;;;;;;;;5068096;28;20055;-63
2024/01/11 11:00:18;;;;;;;35.03;12.80;;;;;;;;;;5067108;28;20106;-64
2024/01/11 11:02:47;;;;;;;32.42;13.27;;;;;;;;;;5066684;28;20059;-65
2024/01/11 11:05:17;;;;;;;35.35;13.65;;;;;;;;;;5066659;28;20064;-65
2024/01/11 11:07:46;;;;;;;36.47;12.55;;;;;;;;;;5067879;28;20062;-64
2024/01/11 11:10:15;;;;;;;31.95;12.70;;;;;;;;;;5067272;28;20048;-65
2024/01/11 11:12:45;;;;;;;39.35;13.63;;;;;;;;;;5067056;28;20500;-64
2024/01/11 11:15:14;;;;;;;27.73;12.10;;;;;;;;;;5066568;28;20509;-63
2024/01/11 11:17:43;;;;;;;30.50;11.57;;;;;;;;;;5065462;28;20076;-63
2024/01/11 11:20:13;;;;;;;31.80;13.15;;;;;;;;;;5067754;28;20049;-63
2024/01/11 11:22:42;;;;;;;41.30;13.43;;;;;;;;;;5067841;28;20127;-64
2024/01/11 11:25:11;;;;;;;36.83;14.35;;;;;;;;;;5069123;28;20057;-64
2024/01/11 11:27:39;;;;;;;26.25;11.75;;;;;;;;;;5070672;28;20080;-64
2024/01/11 11:30:10;;;;;;;34.60;12.02;;;;;;;;;;5071288;28;20467;-65
2024/01/11 11:32:40;;;;;;;35.03;13.68;;;;;;;;;;5071108;28;20083;-63
2024/01/11 11:35:09;;;;;;;28.13;12.27;;;;;;;;;;5070570;28;20052;-65
2024/01/11 11:37:38;;;;;;;27.23;12.40;;;;;;;;;;5070310;28;20390;-63
2024/01/11 11:40:07;;;;;;;28.65;12.70;;;;;;;;;;5068030;28;20060;-64
2024/01/11 11:42:36;;;;;;;29.95;12.68;;;;;;;;;;5069692;28;20127;-64
2024/01/11 11:45:05;;;;;;;31.40;13.52;;;;;;;;;;5069987;28;20055;-64
2024/01/11 11:47:38;;;;;;;32.88;12.52;;;;;;;;;;5070566;28;20532;-64
2024/01/11 11:50:09;;;;;;;33.28;12.30;;;;;;;;;;5070816;28;20063;-66
2024/01/11 11:52:38;;;;;;;27.50;11.32;;;;;;;;;;5069213;28;20143;-64
2024/01/11 11:55:08;;;;;;;33.00;12.95;;;;;;;;;;5069129;28;20086;-63
2024/01/11 11:57:36;;;;;;;32.47;13.88;;;;;;;;;;5063984;28;20045;-62
2024/01/11 12:00:06;;;;;;;27.08;11.73;;;;;;;;;;5070600;28;20045;-62
2024/01/11 12:02:35;;;;;;;28.88;12.35;;;;;;;;;;5069274;28;20060;-62
2024/01/11 12:05:06;;;;;;;27.95;11.07;;;;;;;;;;5069610;28;20064;-62
2024/01/11 12:07:35;;;;;;;26.13;11.25;;;;;;;;;;5070554;28;20048;-63
2024/01/11 12:10:03;;;;;;;30.75;14.05;;;;;;;;;;5070817;28;20045;-64
2024/01/11 12:12:32;;;;;;;28.48;12.45;;;;;;;;;;5069987;28;20061;-63
2024/01/11 12:15:00;;;;;;;36.47;13.27;;;;;;;;;;5068995;28;20044;-65
2024/01/11 12:17:28;;;;;;;33.75;13.43;;;;;;;;;;5068593;28;20477;-63
2024/01/11 12:19:57;;;;;;;34.35;13.70;;;;;;;;;;5070609;28;20044;-62
2024/01/11 12:22:27;;;;;;;33.50;13.05;;;;;;;;;;5070834;28;20102;-62
2024/01/11 12:24:55;;;;;;;28.40;12.52;;;;;;;;;;5070776;28;20102;-63
2024/01/11 12:27:24;;;;;;;29.13;12.60;;;;;;;;;;5067768;28;20520;-62
2024/01/11 12:29:52;;;;;;;28.25;11.80;;;;;;;;;;5068514;28;20086;-63
2024/01/11 12:32:27;;;;;;;27.80;11.27;;;;;;;;;;5069344;28;20052;-63
2024/01/11 12:34:56;;;;;;;34.55;12.65;;;;;;;;;;5070275;28;20505;-62
2024/01/11 12:37:24;;;;;;;31.65;12.82;;;;;;;;;;5067634;28;20052;-62
2024/01/11 12:39:59;;;;;;;34.83;12.38;;;;;;;;;;5069438;28;20425;-64
2024/01/11 12:42:28;;;;;;;25.50;12.43;;;;;;;;;;5066542;28;20072;-62
2024/01/11 12:44:57;;;;;;;32.65;13.57;;;;;;;;;;5065841;28;20104;-62
2024/01/11 12:47:27;;;;;;;29.13;12.82;;;;;;;;;;5069720;28;20057;-62
2024/01/11 12:49:56;;;;;;;33.85;13.30;;;;;;;;;;5068319;28;20132;-63
2024/01/11 12:52:27;;;;;;;40.55;14.63;;;;;;;;;;5066252;28;20048;-62
2024/01/11 12:54:56;;;;;;;30.92;13.82;;;;;;;;;;5061649;28;20064;-63
2024/01/11 12:57:26;;;;;;;33.17;13.10;;;;;;;;;;5067716;28;20061;-62
2024/01/11 12:59:55;;;;;;;27.80;11.13;;;;;;;;;;5066324;28;20076;-64
2024/01/11 13:02:24;;;;;;;31.67;14.25;;;;;;;;;;5068154;28;20106;-64
2024/01/11 13:04:52;;;;;;;28.08;11.77;;;;;;;;;;5066534;28;20060;-64
2024/01/11 13:07:22;;;;;;;35.20;13.70;;;;;;;;;;5067221;28;20053;-63
2024/01/11 13:09:51;;;;;;;27.05;12.88;;;;;;;;;;5065927;28;20540;-64
2024/01/11 13:12:20;;;;;;;29.38;13.30;;;;;;;;;;5068762;28;20052;-63
2024/01/11 13:14:52;;;;;;;39.65;15.85;;;;;;;;;;5067886;28;20482;-64
2024/01/11 13:17:21;;;;;;;32.42;13.63;;;;;;;;;;5064840;28;20056;-65
2024/01/11 13:19:50;;;;;;;38.80;14.25;;;;;;;;;;5062729;28;20131;-66
2024/01/11 13:22:18;;;;;;;34.88;14.77;;;;;;;;;;5064577;28;20306;-64
2024/01/11 13:24:46;;;;;;;35.58;13.48;;;;;;;;;;5065469;28;20071;-63
2024/01/11 13:27:15;;;;;;;32.22;14.85;;;;;;;;;;5066705;28;20052;-63
2024/01/11 13:29:43;;;;;;;32.42;14.10;;;;;;;;;;5065925;28;20056;-64
2024/01/11 13:32:13;;;;;;;31.77;13.32;;;;;;;;;;5067133;28;20049;-63
2024/01/11 13:34:42;;;;;;;42.63;15.75;;;;;;;;;;5065875;28;20082;-64
2024/01/11 13:37:11;;;;;;;35.25;13.75;;;;;;;;;;5066174;28;20053;-62
2024/01/11 13:39:39;;;;;;;28.52;13.25;;;;;;;;;;5066654;28;20052;-64
2024/01/11 13:42:09;;;;;;;33.60;13.57;;;;;;;;;;5062366;28;20056;-63
2024/01/11 13:44:38;;;;;;;35.20;15.60;;;;;;;;;;5065107;28;20048;-64
2024/01/11 13:47:06;;;;;;;36.17;14.65;;;;;;;;;;5065281;28;20044;-63
2024/01/11 13:49:36;;;;;;;33.67;14.50;;;;;;;;;;5067335;28;20131;-64
2024/01/11 13:52:06;;;;;;;31.30;12.88;;;;;;;;;;5063649;28;20083;-65
2024/01/11 13:54:34;;;;;;;32.25;13.48;;;;;;;;;;5066819;28;20567;-64
2024/01/11 13:57:03;;;;;;;28.98;12.80;;;;;;;;;;5065668;28;20056;-62
2024/01/11 13:59:32;;;;;;;35.70;14.13;;;;;;;;;;5064918;28;20062;-65
2024/01/11 14:02:01;;;;;;;30.55;13.38;;;;;;;;;;5066037;28;20135;-62
2024/01/11 14:04:30;;;;;;;32.42;13.20;;;;;;;;;;5064540;28;20080;-68
2024/01/11 14:07:00;;;;;;;32.53;13.95;;;;;;;;;;5065822;28;20113;-64
2024/01/11 14:09:28;;;;;;;38.67;14.07;;;;;;;;;;5063667;28;20044;-64
2024/01/11 14:11:57;;;;;;;28.73;13.18;;;;;;;;;;5067000;28;20497;-63
2024/01/11 14:14:25;;;;;;;44.53;15.77;;;;;;;;;;5066208;28;20473;-66
2024/01/11 14:16:54;;;;;;;32.65;14.48;;;;;;;;;;5064721;28;20054;-64
2024/01/11 14:19:23;;;;;;;41.40;14.35;;;;;;;;;;5063600;28;20049;-63
2024/01/11 14:21:51;;;;;;;31.80;14.52;;;;;;;;;;5066331;28;20083;-63
2024/01/11 14:24:21;;;;;;;35.75;14.88;;;;;;;;;;5064766;28;20056;-63
2024/01/11 14:27:00;;;;;;;33.72;13.88;;;;;;;;;;5064929;28;20139;-64
2024/01/11 14:29:29;;;;;;;27.08;12.68;;;;;;;;;;5064441;28;20053;-64
2024/01/11 14:31:57;;;;;;;28.48;12.88;;;;;;;;;;5065748;28;20048;-63
2024/01/11 14:34:26;;;;;;;35.35;13.98;;;;;;;;;;5062879;28;20470;-64